sensor_id;sensor_type;location;lat;lon;timestamp;P1;durP1;ratioP1;P2;durP2;ratioP2
14849;SDS011;7517;48.400;11.770;2023-09-07T00:00:06;2.40;;;2.27;;
14849;SDS011;7517;48.400;11.770;2023-09-07T00:02:35;2.47;;;2.03;;
14849;SDS011;7517;48.400;11.770;2023-09-07T00:05:04;3.03;;;2.23;;
14849;SDS011;7517;48.400;11.770;2023-09-07T00:07:32;2.83;;;2.20;;
14849;SDS011;7517;48.400;11.770;2023-09-07T00:10:00;2.10;;;2.00;;
14849;SDS011;7517;48.400;11.770;2023-09-07T00:12:29;2.23;;;2.07;;
14849;SDS011;7517;48.400;11.770;2023-09-07T00:14:57;3.33;;;2.00;;
14849;SDS011;7517;48.400;11.770;2023-09-07T00:17:25;2.00;;;1.80;;
14849;SDS011;7517;48.400;11.770;2023-09-07T00:19:52;2.90;;;2.60;;
14849;SDS011;7517;48.400;11.770;2023-09-07T00:22:22;2.13;;;2.03;;
14849;SDS011;7517;48.400;11.770;2023-09-07T00:24:50;2.47;;;2.27;;
14849;SDS011;7517;48.400;11.770;2023-09-07T00:27:18;2.70;;;2.50;;
14849;SDS011;7517;48.400;11.770;2023-09-07T00:29:47;2.50;;;2.30;;
14849;SDS011;7517;48.400;11.770;2023-09-07T00:32:14;2.17;;;2.07;;
14849;SDS011;7517;48.400;11.770;2023-09-07T00:34:42;2.33;;;2.20;;
14849;SDS011;7517;48.400;11.770;2023-09-07T00:37:09;2.53;;;2.33;;
14849;SDS011;7517;48.400;11.770;2023-09-07T00:39:36;2.67;;;2.47;;
14849;SDS011;7517;48.400;11.770;2023-09-07T00:42:04;2.17;;;2.07;;
14849;SDS011;7517;48.400;11.770;2023-09-07T00:44:31;3.13;;;2.37;;
14849;SDS011;7517;48.400;11.770;2023-09-07T00:47:00;2.50;;;2.27;;
14849;SDS011;7517;48.400;11.770;2023-09-07T00:49:28;3.07;;;2.27;;
14849;SDS011;7517;48.400;11.770;2023-09-07T00:51:55;2.80;;;2.50;;
14849;SDS011;7517;48.400;11.770;2023-09-07T00:54:22;2.33;;;2.23;;
14849;SDS011;7517;48.400;11.770;2023-09-07T00:56:50;2.43;;;2.23;;
14849;SDS011;7517;48.400;11.770;2023-09-07T00:59:17;3.50;;;2.70;;
14849;SDS011;7517;48.400;11.770;2023-09-07T01:01:45;2.10;;;2.00;;
14849;SDS011;7517;48.400;11.770;2023-09-07T01:04:14;2.70;;;2.50;;
14849;SDS011;7517;48.400;11.770;2023-09-07T01:06:43;2.40;;;2.20;;
14849;SDS011;7517;48.400;11.770;2023-09-07T01:09:16;2.30;;;2.10;;
14849;SDS011;7517;48.400;11.770;2023-09-07T01:11:48;2.13;;;2.03;;
14849;SDS011;7517;48.400;11.770;2023-09-07T01:14:17;2.37;;;2.20;;
14849;SDS011;7517;48.400;11.770;2023-09-07T01:16:45;2.87;;;2.13;;
14849;SDS011;7517;48.400;11.770;2023-09-07T01:19:14;2.10;;;2.00;;
14849;SDS011;7517;48.400;11.770;2023-09-07T01:21:43;2.47;;;2.27;;
14849;SDS011;7517;48.400;11.770;2023-09-07T01:24:12;2.53;;;2.33;;
14849;SDS011;7517;48.400;11.770;2023-09-07T01:26:41;2.17;;;2.03;;
14849;SDS011;7517;48.400;11.770;2023-09-07T01:29:14;2.27;;;2.13;;
14849;SDS011;7517;48.400;11.770;2023-09-07T01:31:43;2.37;;;2.17;;
14849;SDS011;7517;48.400;11.770;2023-09-07T01:34:10;2.50;;;2.30;;
14849;SDS011;7517;48.400;11.770;2023-09-07T01:36:37;2.70;;;2.30;;
14849;SDS011;7517;48.400;11.770;2023-09-07T01:39:06;2.73;;;2.20;;
14849;SDS011;7517;48.400;11.770;2023-09-07T01:41:34;2.53;;;2.33;;
14849;SDS011;7517;48.400;11.770;2023-09-07T01:44:02;2.53;;;2.33;;
14849;SDS011;7517;48.400;11.770;2023-09-07T01:46:30;3.17;;;2.40;;
14849;SDS011;7517;48.400;11.770;2023-09-07T01:48:57;2.30;;;2.10;;
14849;SDS011;7517;48.400;11.770;2023-09-07T01:51:24;2.70;;;2.47;;
14849;SDS011;7517;48.400;11.770;2023-09-07T01:53:54;2.47;;;2.33;;
14849;SDS011;7517;48.400;11.770;2023-09-07T01:56:22;2.73;;;2.30;;
14849;SDS011;7517;48.400;11.770;2023-09-07T01:58:50;2.93;;;2.30;;
14849;SDS011;7517;48.400;11.770;2023-09-07T02:01:23;2.50;;;2.30;;
14849;SDS011;7517;48.400;11.770;2023-09-07T02:03:54;2.33;;;2.10;;
14849;SDS011;7517;48.400;11.770;2023-09-07T02:06:22;2.60;;;2.40;;
14849;SDS011;7517;48.400;11.770;2023-09-07T02:08:49;2.40;;;2.30;;
14849;SDS011;7517;48.400;11.770;2023-09-07T02:11:16;2.30;;;2.20;;
14849;SDS011;7517;48.400;11.770;2023-09-07T02:13:46;2.47;;;2.37;;
14849;SDS011;7517;48.400;11.770;2023-09-07T02:16:14;2.53;;;2.33;;
14849;SDS011;7517;48.400;11.770;2023-09-07T02:18:43;2.37;;;2.27;;
14849;SDS011;7517;48.400;11.770;2023-09-07T02:21:12;2.37;;;2.00;;
14849;SDS011;7517;48.400;11.770;2023-09-07T02:23:39;2.33;;;2.13;;
14849;SDS011;7517;48.400;11.770;2023-09-07T02:26:07;3.07;;;2.40;;
14849;SDS011;7517;48.400;11.770;2023-09-07T02:28:34;2.93;;;2.40;;
14849;SDS011;7517;48.400;11.770;2023-09-07T02:31:06;2.87;;;2.60;;
14849;SDS011;7517;48.400;11.770;2023-09-07T02:33:33;2.37;;;2.17;;
14849;SDS011;7517;48.400;11.770;2023-09-07T02:36:01;2.87;;;2.20;;
14849;SDS011;7517;48.400;11.770;2023-09-07T02:38:28;2.60;;;2.40;;
14849;SDS011;7517;48.400;11.770;2023-09-07T02:40:56;4.13;;;2.33;;
14849;SDS011;7517;48.400;11.770;2023-09-07T02:43:23;2.77;;;2.57;;
14849;SDS011;7517;48.400;11.770;2023-09-07T02:45:51;2.37;;;2.17;;
14849;SDS011;7517;48.400;11.770;2023-09-07T02:48:20;2.53;;;2.30;;
14849;SDS011;7517;48.400;11.770;2023-09-07T02:50:47;2.97;;;2.30;;
14849;SDS011;7517;48.400;11.770;2023-09-07T02:53:15;2.57;;;2.40;;
14849;SDS011;7517;48.400;11.770;2023-09-07T02:55:42;2.10;;;2.00;;
14849;SDS011;7517;48.400;11.770;2023-09-07T02:58:09;2.77;;;2.57;;
14849;SDS011;7517;48.400;11.770;2023-09-07T03:00:40;2.40;;;2.20;;
14849;SDS011;7517;48.400;11.770;2023-09-07T03:03:09;2.40;;;2.30;;
14849;SDS011;7517;48.400;11.770;2023-09-07T03:05:38;2.53;;;2.43;;
14849;SDS011;7517;48.400;11.770;2023-09-07T03:08:06;2.57;;;2.37;;
14849;SDS011;7517;48.400;11.770;2023-09-07T03:10:34;2.47;;;2.23;;
14849;SDS011;7517;48.400;11.770;2023-09-07T03:13:02;2.70;;;2.50;;
14849;SDS011;7517;48.400;11.770;2023-09-07T03:15:30;3.10;;;2.47;;
14849;SDS011;7517;48.400;11.770;2023-09-07T03:17:58;2.70;;;2.50;;
14849;SDS011;7517;48.400;11.770;2023-09-07T03:20:25;2.87;;;2.67;;
14849;SDS011;7517;48.400;11.770;2023-09-07T03:22:54;2.93;;;2.60;;
14849;SDS011;7517;48.400;11.770;2023-09-07T03:25:22;4.53;;;2.60;;
14849;SDS011;7517;48.400;11.770;2023-09-07T03:27:50;2.47;;;2.30;;
14849;SDS011;7517;48.400;11.770;2023-09-07T03:30:17;2.43;;;2.33;;
14849;SDS011;7517;48.400;11.770;2023-09-07T03:32:45;2.53;;;2.33;;
14849;SDS011;7517;48.400;11.770;2023-09-07T03:35:12;2.80;;;2.60;;
14849;SDS011;7517;48.400;11.770;2023-09-07T03:37:41;2.73;;;2.53;;
14849;SDS011;7517;48.400;11.770;2023-09-07T03:40:10;2.67;;;2.47;;
14849;SDS011;7517;48.400;11.770;2023-09-07T03:42:38;2.13;;;2.03;;
14849;SDS011;7517;48.400;11.770;2023-09-07T03:45:05;2.60;;;2.23;;
14849;SDS011;7517;48.400;11.770;2023-09-07T03:47:33;2.77;;;2.47;;
14849;SDS011;7517;48.400;11.770;2023-09-07T03:50:00;3.00;;;2.53;;
14849;SDS011;7517;48.400;11.770;2023-09-07T03:52:28;2.50;;;2.30;;
14849;SDS011;7517;48.400;11.770;2023-09-07T03:54:55;2.97;;;2.50;;
14849;SDS011;7517;48.400;11.770;2023-09-07T03:57:24;2.53;;;2.33;;
14849;SDS011;7517;48.400;11.770;2023-09-07T03:59:53;2.77;;;2.50;;
14849;SDS011;7517;48.400;11.770;2023-09-07T04:02:21;2.30;;;2.20;;
14849;SDS011;7517;48.400;11.770;2023-09-07T04:04:49;2.47;;;2.30;;
14849;SDS011;7517;48.400;11.770;2023-09-07T04:07:19;2.30;;;2.10;;
14849;SDS011;7517;48.400;11.770;2023-09-07T04:09:47;2.53;;;2.43;;
14849;SDS011;7517;48.400;11.770;2023-09-07T04:12:16;3.10;;;2.90;;
14849;SDS011;7517;48.400;11.770;2023-09-07T04:14:44;2.57;;;2.37;;
14849;SDS011;7517;48.400;11.770;2023-09-07T04:17:12;2.70;;;2.50;;
14849;SDS011;7517;48.400;11.770;2023-09-07T04:19:39;3.03;;;2.40;;
14849;SDS011;7517;48.400;11.770;2023-09-07T04:22:08;6.33;;;2.77;;
14849;SDS011;7517;48.400;11.770;2023-09-07T04:24:36;2.77;;;2.57;;
14849;SDS011;7517;48.400;11.770;2023-09-07T04:27:04;3.03;;;2.83;;
14849;SDS011;7517;48.400;11.770;2023-09-07T04:29:31;2.77;;;2.57;;
14849;SDS011;7517;48.400;11.770;2023-09-07T04:32:00;3.50;;;3.20;;
14849;SDS011;7517;48.400;11.770;2023-09-07T04:34:27;2.63;;;2.43;;
14849;SDS011;7517;48.400;11.770;2023-09-07T04:36:54;2.70;;;2.40;;
14849;SDS011;7517;48.400;11.770;2023-09-07T04:39:21;2.73;;;2.53;;
14849;SDS011;7517;48.400;11.770;2023-09-07T04:41:49;3.07;;;2.80;;
14849;SDS011;7517;48.400;11.770;2023-09-07T04:44:17;3.20;;;2.47;;
14849;SDS011;7517;48.400;11.770;2023-09-07T04:46:45;3.30;;;2.80;;
14849;SDS011;7517;48.400;11.770;2023-09-07T04:49:14;2.70;;;2.50;;
14849;SDS011;7517;48.400;11.770;2023-09-07T04:51:41;3.27;;;3.00;;
14849;SDS011;7517;48.400;11.770;2023-09-07T04:54:09;2.83;;;2.60;;
14849;SDS011;7517;48.400;11.770;2023-09-07T04:56:36;2.70;;;2.50;;
14849;SDS011;7517;48.400;11.770;2023-09-07T04:59:03;3.60;;;3.00;;
14849;SDS011;7517;48.400;11.770;2023-09-07T05:01:30;2.80;;;2.60;;
14849;SDS011;7517;48.400;11.770;2023-09-07T05:03:57;3.43;;;2.90;;
14849;SDS011;7517;48.400;11.770;2023-09-07T05:06:28;2.73;;;2.53;;
14849;SDS011;7517;48.400;11.770;2023-09-07T05:08:55;3.47;;;3.00;;
14849;SDS011;7517;48.400;11.770;2023-09-07T05:11:22;2.73;;;2.53;;
14849;SDS011;7517;48.400;11.770;2023-09-07T05:13:49;2.83;;;2.63;;
14849;SDS011;7517;48.400;11.770;2023-09-07T05:16:17;3.43;;;3.13;;
14849;SDS011;7517;48.400;11.770;2023-09-07T05:18:44;3.20;;;3.00;;
14849;SDS011;7517;48.400;11.770;2023-09-07T05:21:12;2.97;;;2.77;;
14849;SDS011;7517;48.400;11.770;2023-09-07T05:23:41;2.87;;;2.67;;
14849;SDS011;7517;48.400;11.770;2023-09-07T05:26:09;3.00;;;2.80;;
14849;SDS011;7517;48.400;11.770;2023-09-07T05:28:36;2.40;;;2.30;;
14849;SDS011;7517;48.400;11.770;2023-09-07T05:31:07;3.10;;;2.90;;
14849;SDS011;7517;48.400;11.770;2023-09-07T05:33:34;2.53;;;2.33;;
14849;SDS011;7517;48.400;11.770;2023-09-07T05:36:01;2.77;;;2.50;;
14849;SDS011;7517;48.400;11.770;2023-09-07T05:38:29;3.03;;;2.83;;
14849;SDS011;7517;48.400;11.770;2023-09-07T05:40:58;3.97;;;2.70;;
14849;SDS011;7517;48.400;11.770;2023-09-07T05:43:25;4.33;;;2.57;;
14849;SDS011;7517;48.400;11.770;2023-09-07T05:45:52;3.07;;;2.87;;
14849;SDS011;7517;48.400;11.770;2023-09-07T05:48:20;3.17;;;2.97;;
14849;SDS011;7517;48.400;11.770;2023-09-07T05:50:47;3.20;;;2.53;;
14849;SDS011;7517;48.400;11.770;2023-09-07T05:53:15;3.10;;;2.80;;
14849;SDS011;7517;48.400;11.770;2023-09-07T05:55:42;2.80;;;2.60;;
14849;SDS011;7517;48.400;11.770;2023-09-07T05:58:12;3.57;;;2.50;;
14849;SDS011;7517;48.400;11.770;2023-09-07T06:00:40;2.43;;;2.23;;
14849;SDS011;7517;48.400;11.770;2023-09-07T06:03:07;3.07;;;2.87;;
14849;SDS011;7517;48.400;11.770;2023-09-07T06:05:35;3.27;;;3.07;;
14849;SDS011;7517;48.400;11.770;2023-09-07T06:08:04;3.17;;;2.93;;
14849;SDS011;7517;48.400;11.770;2023-09-07T06:10:32;2.63;;;2.43;;
14849;SDS011;7517;48.400;11.770;2023-09-07T06:13:00;3.60;;;3.30;;
14849;SDS011;7517;48.400;11.770;2023-09-07T06:15:30;3.00;;;2.80;;
14849;SDS011;7517;48.400;11.770;2023-09-07T06:17:57;3.80;;;2.97;;
14849;SDS011;7517;48.400;11.770;2023-09-07T06:20:25;2.97;;;2.70;;
14849;SDS011;7517;48.400;11.770;2023-09-07T06:22:52;3.10;;;2.60;;
14849;SDS011;7517;48.400;11.770;2023-09-07T06:25:20;3.10;;;2.80;;
14849;SDS011;7517;48.400;11.770;2023-09-07T06:27:48;3.17;;;2.97;;
14849;SDS011;7517;48.400;11.770;2023-09-07T06:30:15;2.70;;;2.50;;
14849;SDS011;7517;48.400;11.770;2023-09-07T06:32:44;2.80;;;2.60;;
14849;SDS011;7517;48.400;11.770;2023-09-07T06:35:13;3.13;;;2.93;;
14849;SDS011;7517;48.400;11.770;2023-09-07T06:37:42;2.90;;;2.70;;
14849;SDS011;7517;48.400;11.770;2023-09-07T06:40:10;3.33;;;3.00;;
14849;SDS011;7517;48.400;11.770;2023-09-07T06:42:38;3.13;;;2.93;;
14849;SDS011;7517;48.400;11.770;2023-09-07T06:45:06;3.27;;;3.00;;
14849;SDS011;7517;48.400;11.770;2023-09-07T06:47:34;3.07;;;2.87;;
14849;SDS011;7517;48.400;11.770;2023-09-07T06:50:03;3.27;;;3.07;;
14849;SDS011;7517;48.400;11.770;2023-09-07T06:52:32;3.27;;;3.00;;
14849;SDS011;7517;48.400;11.770;2023-09-07T06:54:59;2.90;;;2.70;;
14849;SDS011;7517;48.400;11.770;2023-09-07T06:57:26;3.50;;;3.30;;
14849;SDS011;7517;48.400;11.770;2023-09-07T06:59:54;3.00;;;2.80;;
14849;SDS011;7517;48.400;11.770;2023-09-07T07:02:21;3.10;;;2.83;;
14849;SDS011;7517;48.400;11.770;2023-09-07T07:04:48;3.37;;;2.73;;
14849;SDS011;7517;48.400;11.770;2023-09-07T07:07:17;3.20;;;3.00;;
14849;SDS011;7517;48.400;11.770;2023-09-07T07:09:44;3.03;;;2.83;;
14849;SDS011;7517;48.400;11.770;2023-09-07T07:12:12;2.87;;;2.67;;
14849;SDS011;7517;48.400;11.770;2023-09-07T07:14:39;2.87;;;2.67;;
14849;SDS011;7517;48.400;11.770;2023-09-07T07:17:06;3.13;;;2.93;;
14849;SDS011;7517;48.400;11.770;2023-09-07T07:19:33;3.53;;;2.90;;
14849;SDS011;7517;48.400;11.770;2023-09-07T07:22:01;3.00;;;2.80;;
14849;SDS011;7517;48.400;11.770;2023-09-07T07:24:30;3.50;;;3.20;;
14849;SDS011;7517;48.400;11.770;2023-09-07T07:26:58;3.10;;;2.83;;
14849;SDS011;7517;48.400;11.770;2023-09-07T07:29:25;3.87;;;3.47;;
14849;SDS011;7517;48.400;11.770;2023-09-07T07:31:57;3.20;;;3.00;;
14849;SDS011;7517;48.400;11.770;2023-09-07T07:34:30;2.90;;;2.70;;
14849;SDS011;7517;48.400;11.770;2023-09-07T07:37:03;3.67;;;3.10;;
14849;SDS011;7517;48.400;11.770;2023-09-07T07:39:32;3.03;;;2.83;;
14849;SDS011;7517;48.400;11.770;2023-09-07T07:42:00;3.90;;;3.10;;
14849;SDS011;7517;48.400;11.770;2023-09-07T07:44:28;3.40;;;3.17;;
14849;SDS011;7517;48.400;11.770;2023-09-07T07:46:56;3.10;;;2.90;;
14849;SDS011;7517;48.400;11.770;2023-09-07T07:49:23;3.03;;;2.83;;
14849;SDS011;7517;48.400;11.770;2023-09-07T07:51:50;3.27;;;3.03;;
14849;SDS011;7517;48.400;11.770;2023-09-07T07:54:20;3.00;;;2.80;;
14849;SDS011;7517;48.400;11.770;2023-09-07T07:56:51;2.90;;;2.57;;
14849;SDS011;7517;48.400;11.770;2023-09-07T07:59:18;3.30;;;3.10;;
14849;SDS011;7517;48.400;11.770;2023-09-07T08:01:46;2.87;;;2.67;;
14849;SDS011;7517;48.400;11.770;2023-09-07T08:04:13;3.10;;;2.90;;
14849;SDS011;7517;48.400;11.770;2023-09-07T08:06:40;3.20;;;2.90;;
14849;SDS011;7517;48.400;11.770;2023-09-07T08:09:08;3.13;;;2.93;;
14849;SDS011;7517;48.400;11.770;2023-09-07T08:11:35;3.10;;;2.90;;
14849;SDS011;7517;48.400;11.770;2023-09-07T08:14:05;3.20;;;2.90;;
14849;SDS011;7517;48.400;11.770;2023-09-07T08:16:32;3.20;;;2.90;;
14849;SDS011;7517;48.400;11.770;2023-09-07T08:18:59;2.90;;;2.57;;
14849;SDS011;7517;48.400;11.770;2023-09-07T08:21:26;2.77;;;2.57;;
14849;SDS011;7517;48.400;11.770;2023-09-07T08:23:53;2.90;;;2.70;;
14849;SDS011;7517;48.400;11.770;2023-09-07T08:26:21;4.30;;;3.30;;
14849;SDS011;7517;48.400;11.770;2023-09-07T08:28:48;4.03;;;2.80;;
14849;SDS011;7517;48.400;11.770;2023-09-07T08:31:17;3.27;;;2.73;;
14849;SDS011;7517;48.400;11.770;2023-09-07T08:33:47;3.03;;;2.83;;
14849;SDS011;7517;48.400;11.770;2023-09-07T08:36:15;3.70;;;2.73;;
14849;SDS011;7517;48.400;11.770;2023-09-07T08:38:47;3.63;;;3.27;;
14849;SDS011;7517;48.400;11.770;2023-09-07T08:41:18;3.00;;;2.80;;
14849;SDS011;7517;48.400;11.770;2023-09-07T08:43:49;3.07;;;2.77;;
14849;SDS011;7517;48.400;11.770;2023-09-07T08:46:23;2.77;;;2.50;;
14849;SDS011;7517;48.400;11.770;2023-09-07T08:48:52;2.77;;;2.57;;
14849;SDS011;7517;48.400;11.770;2023-09-07T08:51:24;7.33;;;2.70;;
14849;SDS011;7517;48.400;11.770;2023-09-07T08:53:53;2.83;;;2.63;;
14849;SDS011;7517;48.400;11.770;2023-09-07T08:56:21;2.37;;;2.27;;
14849;SDS011;7517;48.400;11.770;2023-09-07T08:58:53;2.63;;;2.13;;
14849;SDS011;7517;48.400;11.770;2023-09-07T09:01:20;2.60;;;2.50;;
14849;SDS011;7517;48.400;11.770;2023-09-07T09:03:49;2.50;;;2.40;;
14849;SDS011;7517;48.400;11.770;2023-09-07T09:06:18;2.30;;;2.10;;
14849;SDS011;7517;48.400;11.770;2023-09-07T09:08:48;3.00;;;2.63;;
14849;SDS011;7517;48.400;11.770;2023-09-07T09:11:18;3.03;;;2.83;;
14849;SDS011;7517;48.400;11.770;2023-09-07T09:13:47;2.40;;;2.30;;
14849;SDS011;7517;48.400;11.770;2023-09-07T09:16:17;3.80;;;2.50;;
14849;SDS011;7517;48.400;11.770;2023-09-07T09:18:50;2.53;;;2.33;;
14849;SDS011;7517;48.400;11.770;2023-09-07T09:21:19;2.37;;;2.27;;
14849;SDS011;7517;48.400;11.770;2023-09-07T09:23:48;2.60;;;2.40;;
14849;SDS011;7517;48.400;11.770;2023-09-07T09:26:17;2.40;;;2.30;;
14849;SDS011;7517;48.400;11.770;2023-09-07T09:28:46;2.53;;;2.10;;
14849;SDS011;7517;48.400;11.770;2023-09-07T09:31:16;2.47;;;2.27;;
14849;SDS011;7517;48.400;11.770;2023-09-07T09:33:47;2.60;;;2.40;;
14849;SDS011;7517;48.400;11.770;2023-09-07T09:36:17;2.60;;;2.30;;
14849;SDS011;7517;48.400;11.770;2023-09-07T09:38:47;2.50;;;2.30;;
14849;SDS011;7517;48.400;11.770;2023-09-07T09:41:18;2.78;;;2.58;;
14849;SDS011;7517;48.400;11.770;2023-09-07T09:43:46;2.40;;;2.20;;
14849;SDS011;7517;48.400;11.770;2023-09-07T09:46:16;2.35;;;2.00;;
14849;SDS011;7517;48.400;11.770;2023-09-07T09:48:44;3.58;;;2.15;;
14849;SDS011;7517;48.400;11.770;2023-09-07T09:51:15;2.28;;;2.08;;
14849;SDS011;7517;48.400;11.770;2023-09-07T09:53:44;2.42;;;2.22;;
14849;SDS011;7517;48.400;11.770;2023-09-07T09:56:14;2.45;;;2.25;;
14849;SDS011;7517;48.400;11.770;2023-09-07T09:58:42;2.25;;;1.88;;
14849;SDS011;7517;48.400;11.770;2023-09-07T10:01:09;1.98;;;1.88;;
14849;SDS011;7517;48.400;11.770;2023-09-07T10:03:40;2.00;;;1.90;;
14849;SDS011;7517;48.400;11.770;2023-09-07T10:06:17;2.20;;;2.03;;
14849;SDS011;7517;48.400;11.770;2023-09-07T10:08:53;2.08;;;1.98;;
14849;SDS011;7517;48.400;11.770;2023-09-07T10:11:32;3.15;;;2.10;;
14849;SDS011;7517;48.400;11.770;2023-09-07T10:14:02;2.28;;;2.05;;
14849;SDS011;7517;48.400;11.770;2023-09-07T10:16:40;2.97;;;2.13;;
14849;SDS011;7517;48.400;11.770;2023-09-07T10:19:15;2.97;;;2.05;;
14849;SDS011;7517;48.400;11.770;2023-09-07T10:21:46;5.60;;;2.35;;
14849;SDS011;7517;48.400;11.770;2023-09-07T10:24:23;5.30;;;2.42;;
14849;SDS011;7517;48.400;11.770;2023-09-07T10:26:56;4.35;;;3.58;;
14849;SDS011;7517;48.400;11.770;2023-09-07T10:29:25;2.60;;;2.40;;
14849;SDS011;7517;48.400;11.770;2023-09-07T10:31:52;2.50;;;2.30;;
14849;SDS011;7517;48.400;11.770;2023-09-07T10:34:20;2.67;;;2.47;;
14849;SDS011;7517;48.400;11.770;2023-09-07T10:36:49;2.10;;;2.00;;
14849;SDS011;7517;48.400;11.770;2023-09-07T10:39:22;2.47;;;2.30;;
14849;SDS011;7517;48.400;11.770;2023-09-07T10:41:50;2.38;;;2.28;;
14849;SDS011;7517;48.400;11.770;2023-09-07T10:44:24;2.28;;;2.10;;
14849;SDS011;7517;48.400;11.770;2023-09-07T10:46:53;2.65;;;2.50;;
14849;SDS011;7517;48.400;11.770;2023-09-07T10:49:20;4.03;;;3.65;;
14849;SDS011;7517;48.400;11.770;2023-09-07T10:51:49;3.05;;;2.75;;
14849;SDS011;7517;48.400;11.770;2023-09-07T10:54:16;2.70;;;2.35;;
14849;SDS011;7517;48.400;11.770;2023-09-07T10:56:48;2.45;;;2.25;;
14849;SDS011;7517;48.400;11.770;2023-09-07T10:59:22;2.33;;;2.20;;
14849;SDS011;7517;48.400;11.770;2023-09-07T11:01:54;2.13;;;1.90;;
14849;SDS011;7517;48.400;11.770;2023-09-07T11:04:21;2.38;;;2.17;;
14849;SDS011;7517;48.400;11.770;2023-09-07T11:06:50;2.00;;;1.90;;
14849;SDS011;7517;48.400;11.770;2023-09-07T11:09:19;3.22;;;2.15;;
14849;SDS011;7517;48.400;11.770;2023-09-07T11:11:46;2.38;;;2.22;;
14849;SDS011;7517;48.400;11.770;2023-09-07T11:14:14;2.25;;;1.90;;
14849;SDS011;7517;48.400;11.770;2023-09-07T11:16:41;2.00;;;1.90;;
14849;SDS011;7517;48.400;11.770;2023-09-07T11:19:09;2.25;;;2.15;;
14849;SDS011;7517;48.400;11.770;2023-09-07T11:21:37;1.95;;;1.85;;
14849;SDS011;7517;48.400;11.770;2023-09-07T11:24:06;3.13;;;2.60;;
14849;SDS011;7517;48.400;11.770;2023-09-07T11:26:41;1.90;;;1.80;;
14849;SDS011;7517;48.400;11.770;2023-09-07T11:29:09;2.30;;;2.10;;
14849;SDS011;7517;48.400;11.770;2023-09-07T11:31:39;1.75;;;1.65;;
14849;SDS011;7517;48.400;11.770;2023-09-07T11:34:08;2.17;;;1.80;;
14849;SDS011;7517;48.400;11.770;2023-09-07T11:36:36;2.25;;;2.15;;
14849;SDS011;7517;48.400;11.770;2023-09-07T11:39:04;2.08;;;1.95;;
14849;SDS011;7517;48.400;11.770;2023-09-07T11:41:37;2.17;;;1.75;;
14849;SDS011;7517;48.400;11.770;2023-09-07T11:44:06;1.75;;;1.63;;
14849;SDS011;7517;48.400;11.770;2023-09-07T11:46:33;2.10;;;2.00;;
14849;SDS011;7517;48.400;11.770;2023-09-07T11:49:00;2.17;;;2.08;;
14849;SDS011;7517;48.400;11.770;2023-09-07T11:51:29;1.80;;;1.70;;
14849;SDS011;7517;48.400;11.770;2023-09-07T11:53:56;1.67;;;1.58;;
14849;SDS011;7517;48.400;11.770;2023-09-07T11:56:35;3.05;;;1.90;;
14849;SDS011;7517;48.400;11.770;2023-09-07T11:59:06;3.08;;;2.13;;
14849;SDS011;7517;48.400;11.770;2023-09-07T12:01:33;1.80;;;1.70;;
14849;SDS011;7517;48.400;11.770;2023-09-07T12:04:00;2.33;;;2.22;;
14849;SDS011;7517;48.400;11.770;2023-09-07T12:06:29;1.90;;;1.80;;
14849;SDS011;7517;48.400;11.770;2023-09-07T12:08:59;1.92;;;1.70;;
14849;SDS011;7517;48.400;11.770;2023-09-07T12:11:31;2.13;;;1.77;;
14849;SDS011;7517;48.400;11.770;2023-09-07T12:13:59;3.45;;;1.77;;
14849;SDS011;7517;48.400;11.770;2023-09-07T12:16:27;2.03;;;1.85;;
14849;SDS011;7517;48.400;11.770;2023-09-07T12:18:55;2.00;;;1.90;;
14849;SDS011;7517;48.400;11.770;2023-09-07T12:21:23;2.15;;;1.95;;
14849;SDS011;7517;48.400;11.770;2023-09-07T12:23:50;2.38;;;1.50;;
14849;SDS011;7517;48.400;11.770;2023-09-07T12:26:17;2.10;;;2.00;;
14849;SDS011;7517;48.400;11.770;2023-09-07T12:28:47;2.13;;;2.00;;
14849;SDS011;7517;48.400;11.770;2023-09-07T12:31:14;1.95;;;1.85;;
14849;SDS011;7517;48.400;11.770;2023-09-07T12:33:41;2.42;;;1.63;;
14849;SDS011;7517;48.400;11.770;2023-09-07T12:36:09;3.22;;;2.47;;
14849;SDS011;7517;48.400;11.770;2023-09-07T12:38:37;1.92;;;1.83;;
14849;SDS011;7517;48.400;11.770;2023-09-07T12:41:04;1.90;;;1.80;;
14849;SDS011;7517;48.400;11.770;2023-09-07T12:43:31;1.90;;;1.80;;
14849;SDS011;7517;48.400;11.770;2023-09-07T12:46:00;2.65;;;1.60;;
14849;SDS011;7517;48.400;11.770;2023-09-07T12:48:27;1.90;;;1.80;;
14849;SDS011;7517;48.400;11.770;2023-09-07T12:50:54;2.40;;;2.20;;
14849;SDS011;7517;48.400;11.770;2023-09-07T12:53:21;1.70;;;1.60;;
14849;SDS011;7517;48.400;11.770;2023-09-07T12:55:51;2.30;;;2.10;;
14849;SDS011;7517;48.400;11.770;2023-09-07T12:58:19;1.73;;;1.63;;
14849;SDS011;7517;48.400;11.770;2023-09-07T13:00:47;2.67;;;1.88;;
14849;SDS011;7517;48.400;11.770;2023-09-07T13:03:17;1.83;;;1.73;;
14849;SDS011;7517;48.400;11.770;2023-09-07T13:05:46;1.98;;;1.88;;
14849;SDS011;7517;48.400;11.770;2023-09-07T13:08:14;1.70;;;1.60;;
14849;SDS011;7517;48.400;11.770;2023-09-07T13:10:41;1.90;;;1.80;;
14849;SDS011;7517;48.400;11.770;2023-09-07T13:13:08;1.70;;;1.60;;
14849;SDS011;7517;48.400;11.770;2023-09-07T13:15:35;1.90;;;1.80;;
14849;SDS011;7517;48.400;11.770;2023-09-07T13:18:03;1.77;;;1.67;;
14849;SDS011;7517;48.400;11.770;2023-09-07T13:20:32;1.58;;;1.48;;
14849;SDS011;7517;48.400;11.770;2023-09-07T13:22:59;2.17;;;1.60;;
14849;SDS011;7517;48.400;11.770;2023-09-07T13:25:26;2.10;;;1.90;;
14849;SDS011;7517;48.400;11.770;2023-09-07T13:27:53;1.80;;;1.70;;
14849;SDS011;7517;48.400;11.770;2023-09-07T13:30:20;3.88;;;1.83;;
14849;SDS011;7517;48.400;11.770;2023-09-07T13:32:48;2.00;;;1.80;;
14849;SDS011;7517;48.400;11.770;2023-09-07T13:35:15;2.75;;;1.70;;
14849;SDS011;7517;48.400;11.770;2023-09-07T13:37:44;2.13;;;1.92;;
14849;SDS011;7517;48.400;11.770;2023-09-07T13:40:11;2.40;;;2.00;;
14849;SDS011;7517;48.400;11.770;2023-09-07T13:42:40;2.80;;;1.90;;
14849;SDS011;7517;48.400;11.770;2023-09-07T13:45:08;3.88;;;2.10;;
14849;SDS011;7517;48.400;11.770;2023-09-07T13:47:36;2.17;;;1.95;;
14849;SDS011;7517;48.400;11.770;2023-09-07T13:50:05;1.98;;;1.88;;
14849;SDS011;7517;48.400;11.770;2023-09-07T13:52:33;1.90;;;1.80;;
14849;SDS011;7517;48.400;11.770;2023-09-07T13:55:02;2.00;;;1.90;;
14849;SDS011;7517;48.400;11.770;2023-09-07T13:57:32;2.38;;;1.73;;
14849;SDS011;7517;48.400;11.770;2023-09-07T13:59:59;4.13;;;2.03;;
14849;SDS011;7517;48.400;11.770;2023-09-07T14:02:27;1.83;;;1.73;;
14849;SDS011;7517;48.400;11.770;2023-09-07T14:04:55;1.80;;;1.70;;
14849;SDS011;7517;48.400;11.770;2023-09-07T14:07:22;2.03;;;1.70;;
14849;SDS011;7517;48.400;11.770;2023-09-07T14:09:51;2.30;;;2.10;;
14849;SDS011;7517;48.400;11.770;2023-09-07T14:12:20;1.92;;;1.83;;
14849;SDS011;7517;48.400;11.770;2023-09-07T14:14:48;1.85;;;1.75;;
14849;SDS011;7517;48.400;11.770;2023-09-07T14:17:16;2.10;;;2.00;;
14849;SDS011;7517;48.400;11.770;2023-09-07T14:19:43;3.35;;;1.88;;
14849;SDS011;7517;48.400;11.770;2023-09-07T14:22:10;2.80;;;1.90;;
14849;SDS011;7517;48.400;11.770;2023-09-07T14:24:38;1.70;;;1.60;;
14849;SDS011;7517;48.400;11.770;2023-09-07T14:27:05;1.80;;;1.70;;
14849;SDS011;7517;48.400;11.770;2023-09-07T14:29:32;2.65;;;1.60;;
14849;SDS011;7517;48.400;11.770;2023-09-07T14:32:00;1.77;;;1.67;;
14849;SDS011;7517;48.400;11.770;2023-09-07T14:34:27;2.65;;;2.03;;
14849;SDS011;7517;48.400;11.770;2023-09-07T14:36:54;2.53;;;1.75;;
14849;SDS011;7517;48.400;11.770;2023-09-07T14:39:22;1.75;;;1.65;;
14849;SDS011;7517;48.400;11.770;2023-09-07T14:41:49;1.83;;;1.73;;
14849;SDS011;7517;48.400;11.770;2023-09-07T14:44:18;1.98;;;1.88;;
14849;SDS011;7517;48.400;11.770;2023-09-07T14:46:46;1.58;;;1.48;;
14849;SDS011;7517;48.400;11.770;2023-09-07T14:49:14;2.05;;;1.40;;
14849;SDS011;7517;48.400;11.770;2023-09-07T14:51:42;1.92;;;1.83;;
14849;SDS011;7517;48.400;11.770;2023-09-07T14:54:10;1.85;;;1.70;;